sensor_id;sensor_type;location;lat;lon;timestamp;P1;durP1;ratioP1;P2;durP2;ratioP2
50647;SDS011;36617;52.002;6.034;2023-04-25T00:01:07;5.20;;;1.90;;
50647;SDS011;36617;52.002;6.034;2023-04-25T00:03:33;4.28;;;1.80;;
50647;SDS011;36617;52.002;6.034;2023-04-25T00:06:00;4.10;;;1.70;;
50647;SDS011;36617;52.002;6.034;2023-04-25T00:08:28;4.80;;;1.75;;
50647;SDS011;36617;52.002;6.034;2023-04-25T00:10:54;3.20;;;1.73;;
50647;SDS011;36617;52.002;6.034;2023-04-25T00:13:19;3.60;;;1.57;;
50647;SDS011;36617;52.002;6.034;2023-04-25T00:15:45;4.10;;;1.53;;
50647;SDS011;36617;52.002;6.034;2023-04-25T00:18:11;4.15;;;1.63;;
50647;SDS011;36617;52.002;6.034;2023-04-25T00:20:36;4.07;;;1.73;;
50647;SDS011;36617;52.002;6.034;2023-04-25T00:23:01;4.80;;;1.60;;
50647;SDS011;36617;52.002;6.034;2023-04-25T00:25:27;3.97;;;1.80;;
50647;SDS011;36617;52.002;6.034;2023-04-25T00:27:52;4.87;;;1.70;;
50647;SDS011;36617;52.002;6.034;2023-04-25T00:30:17;4.77;;;1.70;;
50647;SDS011;36617;52.002;6.034;2023-04-25T00:32:42;3.97;;;1.70;;
50647;SDS011;36617;52.002;6.034;2023-04-25T00:35:08;4.00;;;1.60;;
50647;SDS011;36617;52.002;6.034;2023-04-25T00:37:33;4.83;;;1.50;;
50647;SDS011;36617;52.002;6.034;2023-04-25T00:39:59;4.57;;;1.80;;
50647;SDS011;36617;52.002;6.034;2023-04-25T00:42:24;4.90;;;1.50;;
50647;SDS011;36617;52.002;6.034;2023-04-25T00:44:50;4.83;;;1.60;;
50647;SDS011;36617;52.002;6.034;2023-04-25T00:47:16;4.45;;;1.73;;
50647;SDS011;36617;52.002;6.034;2023-04-25T00:49:41;4.37;;;1.60;;
50647;SDS011;36617;52.002;6.034;2023-04-25T00:52:06;4.90;;;1.70;;
50647;SDS011;36617;52.002;6.034;2023-04-25T00:54:32;4.20;;;1.47;;
50647;SDS011;36617;52.002;6.034;2023-04-25T00:56:57;4.13;;;1.60;;
50647;SDS011;36617;52.002;6.034;2023-04-25T00:59:22;4.63;;;1.65;;
50647;SDS011;36617;52.002;6.034;2023-04-25T01:01:48;4.60;;;1.50;;
50647;SDS011;36617;52.002;6.034;2023-04-25T01:04:14;4.90;;;1.67;;
50647;SDS011;36617;52.002;6.034;2023-04-25T01:06:40;4.23;;;1.53;;
50647;SDS011;36617;52.002;6.034;2023-04-25T01:09:05;4.40;;;1.58;;
50647;SDS011;36617;52.002;6.034;2023-04-25T01:11:30;4.53;;;1.53;;
50647;SDS011;36617;52.002;6.034;2023-04-25T01:13:56;4.10;;;1.60;;
50647;SDS011;36617;52.002;6.034;2023-04-25T01:16:21;4.40;;;1.70;;
50647;SDS011;36617;52.002;6.034;2023-04-25T01:18:48;4.37;;;1.60;;
50647;SDS011;36617;52.002;6.034;2023-04-25T01:21:15;4.35;;;1.85;;
50647;SDS011;36617;52.002;6.034;2023-04-25T01:23:41;4.27;;;1.63;;
50647;SDS011;36617;52.002;6.034;2023-04-25T01:26:07;4.18;;;1.70;;
50647;SDS011;36617;52.002;6.034;2023-04-25T01:28:33;4.97;;;1.65;;
50647;SDS011;36617;52.002;6.034;2023-04-25T01:30:58;4.87;;;1.60;;
50647;SDS011;36617;52.002;6.034;2023-04-25T01:33:24;4.83;;;1.67;;
50647;SDS011;36617;52.002;6.034;2023-04-25T01:35:49;3.60;;;1.55;;
50647;SDS011;36617;52.002;6.034;2023-04-25T01:38:14;4.15;;;1.50;;
50647;SDS011;36617;52.002;6.034;2023-04-25T01:40:40;4.10;;;1.50;;
50647;SDS011;36617;52.002;6.034;2023-04-25T01:43:06;5.07;;;1.90;;
50647;SDS011;36617;52.002;6.034;2023-04-25T01:45:33;5.50;;;1.60;;
50647;SDS011;36617;52.002;6.034;2023-04-25T01:47:58;4.20;;;1.50;;
50647;SDS011;36617;52.002;6.034;2023-04-25T01:50:24;5.32;;;1.70;;
50647;SDS011;36617;52.002;6.034;2023-04-25T01:52:50;3.78;;;1.60;;
50647;SDS011;36617;52.002;6.034;2023-04-25T01:55:15;3.70;;;1.30;;
50647;SDS011;36617;52.002;6.034;2023-04-25T01:57:40;4.80;;;1.60;;
50647;SDS011;36617;52.002;6.034;2023-04-25T02:00:06;4.50;;;1.55;;
50647;SDS011;36617;52.002;6.034;2023-04-25T02:02:32;5.25;;;1.70;;
50647;SDS011;36617;52.002;6.034;2023-04-25T02:04:57;4.70;;;1.70;;
50647;SDS011;36617;52.002;6.034;2023-04-25T02:07:22;4.00;;;1.60;;
50647;SDS011;36617;52.002;6.034;2023-04-25T02:09:47;5.63;;;2.03;;
50647;SDS011;36617;52.002;6.034;2023-04-25T02:12:13;5.80;;;1.73;;
50647;SDS011;36617;52.002;6.034;2023-04-25T02:14:38;4.67;;;1.70;;
50647;SDS011;36617;52.002;6.034;2023-04-25T02:17:03;6.03;;;1.87;;
50647;SDS011;36617;52.002;6.034;2023-04-25T02:19:28;4.40;;;1.60;;
50647;SDS011;36617;52.002;6.034;2023-04-25T02:21:54;4.43;;;1.40;;
50647;SDS011;36617;52.002;6.034;2023-04-25T02:24:19;5.70;;;1.70;;
50647;SDS011;36617;52.002;6.034;2023-04-25T02:26:44;4.70;;;1.80;;
50647;SDS011;36617;52.002;6.034;2023-04-25T02:29:11;6.15;;;1.80;;
50647;SDS011;36617;52.002;6.034;2023-04-25T02:31:36;3.43;;;1.50;;
50647;SDS011;36617;52.002;6.034;2023-04-25T02:34:02;4.87;;;1.70;;
50647;SDS011;36617;52.002;6.034;2023-04-25T02:36:27;4.90;;;1.80;;
50647;SDS011;36617;52.002;6.034;2023-04-25T02:38:52;4.90;;;1.90;;
50647;SDS011;36617;52.002;6.034;2023-04-25T02:41:17;5.93;;;1.77;;
50647;SDS011;36617;52.002;6.034;2023-04-25T02:43:43;4.73;;;1.73;;
50647;SDS011;36617;52.002;6.034;2023-04-25T02:46:08;4.50;;;1.80;;
50647;SDS011;36617;52.002;6.034;2023-04-25T02:48:33;4.87;;;1.60;;
50647;SDS011;36617;52.002;6.034;2023-04-25T02:50:58;5.43;;;1.80;;
50647;SDS011;36617;52.002;6.034;2023-04-25T02:53:23;4.23;;;1.60;;
50647;SDS011;36617;52.002;6.034;2023-04-25T02:55:48;5.77;;;1.67;;
50647;SDS011;36617;52.002;6.034;2023-04-25T02:58:14;5.10;;;1.70;;
50647;SDS011;36617;52.002;6.034;2023-04-25T03:00:40;5.00;;;1.88;;
50647;SDS011;36617;52.002;6.034;2023-04-25T03:03:05;5.20;;;1.60;;
50647;SDS011;36617;52.002;6.034;2023-04-25T03:05:31;5.40;;;1.80;;
50647;SDS011;36617;52.002;6.034;2023-04-25T03:07:56;4.70;;;1.80;;
50647;SDS011;36617;52.002;6.034;2023-04-25T03:10:21;4.53;;;1.70;;
50647;SDS011;36617;52.002;6.034;2023-04-25T03:12:46;5.90;;;1.80;;
50647;SDS011;36617;52.002;6.034;2023-04-25T03:15:11;4.97;;;1.60;;
50647;SDS011;36617;52.002;6.034;2023-04-25T03:17:36;5.50;;;1.70;;
50647;SDS011;36617;52.002;6.034;2023-04-25T03:20:02;4.60;;;1.53;;
50647;SDS011;36617;52.002;6.034;2023-04-25T03:22:28;6.00;;;1.83;;
50647;SDS011;36617;52.002;6.034;2023-04-25T03:24:54;5.43;;;1.52;;
50647;SDS011;36617;52.002;6.034;2023-04-25T03:27:19;5.10;;;1.80;;
50647;SDS011;36617;52.002;6.034;2023-04-25T03:29:45;5.40;;;1.90;;
50647;SDS011;36617;52.002;6.034;2023-04-25T03:32:10;4.40;;;1.50;;
50647;SDS011;36617;52.002;6.034;2023-04-25T03:34:35;4.90;;;1.60;;
50647;SDS011;36617;52.002;6.034;2023-04-25T03:37:00;5.83;;;1.90;;
50647;SDS011;36617;52.002;6.034;2023-04-25T03:39:25;5.30;;;1.90;;
50647;SDS011;36617;52.002;6.034;2023-04-25T03:41:50;6.10;;;1.80;;
50647;SDS011;36617;52.002;6.034;2023-04-25T03:44:16;5.57;;;1.80;;
50647;SDS011;36617;52.002;6.034;2023-04-25T03:46:41;4.37;;;1.60;;
50647;SDS011;36617;52.002;6.034;2023-04-25T03:49:06;5.60;;;1.80;;
50647;SDS011;36617;52.002;6.034;2023-04-25T03:51:31;5.25;;;1.75;;
50647;SDS011;36617;52.002;6.034;2023-04-25T03:53:56;6.03;;;1.80;;
50647;SDS011;36617;52.002;6.034;2023-04-25T03:56:22;4.37;;;1.67;;
50647;SDS011;36617;52.002;6.034;2023-04-25T03:58:47;4.17;;;1.60;;
50647;SDS011;36617;52.002;6.034;2023-04-25T04:01:12;5.53;;;1.80;;
50647;SDS011;36617;52.002;6.034;2023-04-25T04:03:37;5.10;;;1.70;;
50647;SDS011;36617;52.002;6.034;2023-04-25T04:06:03;5.17;;;1.80;;
50647;SDS011;36617;52.002;6.034;2023-04-25T04:08:29;4.53;;;1.80;;
50647;SDS011;36617;52.002;6.034;2023-04-25T04:10:54;5.50;;;1.80;;
50647;SDS011;36617;52.002;6.034;2023-04-25T04:13:19;5.30;;;1.80;;
50647;SDS011;36617;52.002;6.034;2023-04-25T04:15:45;5.93;;;1.90;;
50647;SDS011;36617;52.002;6.034;2023-04-25T04:18:10;4.93;;;1.80;;
50647;SDS011;36617;52.002;6.034;2023-04-25T04:20:35;6.15;;;1.98;;
50647;SDS011;36617;52.002;6.034;2023-04-25T04:23:01;4.37;;;1.43;;
50647;SDS011;36617;52.002;6.034;2023-04-25T04:25:26;6.47;;;1.90;;
50647;SDS011;36617;52.002;6.034;2023-04-25T04:27:51;5.63;;;1.87;;
50647;SDS011;36617;52.002;6.034;2023-04-25T04:30:21;4.93;;;1.90;;
50647;SDS011;36617;52.002;6.034;2023-04-25T04:32:46;5.70;;;1.70;;
50647;SDS011;36617;52.002;6.034;2023-04-25T04:35:12;5.25;;;1.65;;
50647;SDS011;36617;52.002;6.034;2023-04-25T04:37:38;4.75;;;1.90;;
50647;SDS011;36617;52.002;6.034;2023-04-25T04:40:03;5.22;;;1.70;;
50647;SDS011;36617;52.002;6.034;2023-04-25T04:42:30;4.93;;;1.80;;
50647;SDS011;36617;52.002;6.034;2023-04-25T04:44:55;5.43;;;1.93;;
50647;SDS011;36617;52.002;6.034;2023-04-25T04:47:20;5.77;;;1.83;;
50647;SDS011;36617;52.002;6.034;2023-04-25T04:49:45;6.17;;;1.90;;
50647;SDS011;36617;52.002;6.034;2023-04-25T04:52:10;6.43;;;2.10;;
50647;SDS011;36617;52.002;6.034;2023-04-25T04:54:36;5.80;;;1.90;;
50647;SDS011;36617;52.002;6.034;2023-04-25T04:57:01;5.33;;;1.80;;
50647;SDS011;36617;52.002;6.034;2023-04-25T04:59:26;5.28;;;1.60;;
50647;SDS011;36617;52.002;6.034;2023-04-25T05:01:52;5.07;;;1.83;;
50647;SDS011;36617;52.002;6.034;2023-04-25T05:04:17;5.17;;;1.60;;
50647;SDS011;36617;52.002;6.034;2023-04-25T05:06:42;5.13;;;1.60;;
50647;SDS011;36617;52.002;6.034;2023-04-25T05:09:07;5.43;;;1.57;;
50647;SDS011;36617;52.002;6.034;2023-04-25T05:11:32;4.43;;;1.60;;
50647;SDS011;36617;52.002;6.034;2023-04-25T05:13:58;5.90;;;1.70;;
50647;SDS011;36617;52.002;6.034;2023-04-25T05:16:23;5.60;;;1.80;;
50647;SDS011;36617;52.002;6.034;2023-04-25T05:18:48;5.13;;;1.53;;
50647;SDS011;36617;52.002;6.034;2023-04-25T05:21:13;4.90;;;1.80;;
50647;SDS011;36617;52.002;6.034;2023-04-25T05:23:38;4.37;;;1.60;;
50647;SDS011;36617;52.002;6.034;2023-04-25T05:26:04;5.87;;;1.90;;
50647;SDS011;36617;52.002;6.034;2023-04-25T05:28:29;5.33;;;1.80;;
50647;SDS011;36617;52.002;6.034;2023-04-25T05:30:54;4.03;;;1.70;;
50647;SDS011;36617;52.002;6.034;2023-04-25T05:33:19;5.53;;;1.83;;
50647;SDS011;36617;52.002;6.034;2023-04-25T05:35:45;5.17;;;1.90;;
50647;SDS011;36617;52.002;6.034;2023-04-25T05:38:10;4.53;;;1.63;;
50647;SDS011;36617;52.002;6.034;2023-04-25T05:40:36;4.32;;;1.80;;
50647;SDS011;36617;52.002;6.034;2023-04-25T05:43:01;4.57;;;1.90;;
50647;SDS011;36617;52.002;6.034;2023-04-25T05:45:26;5.13;;;1.90;;
50647;SDS011;36617;52.002;6.034;2023-04-25T05:47:51;4.23;;;2.10;;
50647;SDS011;36617;52.002;6.034;2023-04-25T05:50:17;4.82;;;1.90;;
50647;SDS011;36617;52.002;6.034;2023-04-25T05:52:42;5.80;;;2.03;;
50647;SDS011;36617;52.002;6.034;2023-04-25T05:55:07;5.13;;;2.00;;
50647;SDS011;36617;52.002;6.034;2023-04-25T05:57:32;4.80;;;1.83;;
50647;SDS011;36617;52.002;6.034;2023-04-25T05:59:58;5.30;;;1.97;;
50647;SDS011;36617;52.002;6.034;2023-04-25T06:02:23;4.40;;;2.10;;
50647;SDS011;36617;52.002;6.034;2023-04-25T06:04:51;4.33;;;1.73;;
50647;SDS011;36617;52.002;6.034;2023-04-25T06:07:16;4.80;;;1.73;;
50647;SDS011;36617;52.002;6.034;2023-04-25T06:09:42;5.03;;;2.00;;
50647;SDS011;36617;52.002;6.034;2023-04-25T06:12:07;4.73;;;1.70;;
50647;SDS011;36617;52.002;6.034;2023-04-25T06:14:35;5.40;;;2.20;;
50647;SDS011;36617;52.002;6.034;2023-04-25T06:17:00;5.83;;;2.00;;
50647;SDS011;36617;52.002;6.034;2023-04-25T06:19:31;4.37;;;1.90;;
50647;SDS011;36617;52.002;6.034;2023-04-25T06:21:56;4.53;;;1.70;;
50647;SDS011;36617;52.002;6.034;2023-04-25T06:24:21;3.77;;;1.50;;
50647;SDS011;36617;52.002;6.034;2023-04-25T06:26:47;3.50;;;1.57;;
50647;SDS011;36617;52.002;6.034;2023-04-25T06:29:12;3.87;;;1.40;;
50647;SDS011;36617;52.002;6.034;2023-04-25T06:31:37;4.30;;;1.60;;
50647;SDS011;36617;52.002;6.034;2023-04-25T06:34:03;4.37;;;1.73;;
50647;SDS011;36617;52.002;6.034;2023-04-25T06:36:28;5.53;;;1.70;;
50647;SDS011;36617;52.002;6.034;2023-04-25T06:38:53;3.77;;;1.60;;
50647;SDS011;36617;52.002;6.034;2023-04-25T06:41:19;3.92;;;1.35;;
50647;SDS011;36617;52.002;6.034;2023-04-25T06:43:44;4.23;;;1.43;;
50647;SDS011;36617;52.002;6.034;2023-04-25T06:46:10;4.35;;;1.40;;
50647;SDS011;36617;52.002;6.034;2023-04-25T06:48:35;4.40;;;1.60;;
50647;SDS011;36617;52.002;6.034;2023-04-25T06:51:01;3.37;;;1.20;;
50647;SDS011;36617;52.002;6.034;2023-04-25T06:53:31;4.30;;;1.50;;
50647;SDS011;36617;52.002;6.034;2023-04-25T06:55:56;4.00;;;1.50;;
50647;SDS011;36617;52.002;6.034;2023-04-25T06:58:21;4.40;;;1.40;;
50647;SDS011;36617;52.002;6.034;2023-04-25T07:00:47;6.30;;;1.60;;
50647;SDS011;36617;52.002;6.034;2023-04-25T07:03:12;4.27;;;1.30;;
50647;SDS011;36617;52.002;6.034;2023-04-25T07:05:37;4.20;;;1.57;;
50647;SDS011;36617;52.002;6.034;2023-04-25T07:08:03;3.97;;;1.20;;
50647;SDS011;36617;52.002;6.034;2023-04-25T07:10:28;3.87;;;1.40;;
50647;SDS011;36617;52.002;6.034;2023-04-25T07:12:53;4.30;;;1.37;;
50647;SDS011;36617;52.002;6.034;2023-04-25T07:15:18;9.83;;;1.80;;
50647;SDS011;36617;52.002;6.034;2023-04-25T07:17:43;4.63;;;1.53;;
50647;SDS011;36617;52.002;6.034;2023-04-25T07:20:09;7.07;;;1.38;;
50647;SDS011;36617;52.002;6.034;2023-04-25T07:22:34;7.85;;;1.70;;
50647;SDS011;36617;52.002;6.034;2023-04-25T07:25:00;5.33;;;1.60;;
50647;SDS011;36617;52.002;6.034;2023-04-25T07:27:25;5.73;;;1.30;;
50647;SDS011;36617;52.002;6.034;2023-04-25T07:29:50;4.40;;;1.30;;
50647;SDS011;36617;52.002;6.034;2023-04-25T07:32:15;4.17;;;1.30;;
50647;SDS011;36617;52.002;6.034;2023-04-25T07:34:41;4.63;;;1.23;;
50647;SDS011;36617;52.002;6.034;2023-04-25T07:37:06;4.17;;;1.20;;
50647;SDS011;36617;52.002;6.034;2023-04-25T07:39:31;4.10;;;1.47;;
50647;SDS011;36617;52.002;6.034;2023-04-25T07:41:56;5.03;;;1.40;;
50647;SDS011;36617;52.002;6.034;2023-04-25T07:44:23;5.43;;;1.30;;
50647;SDS011;36617;52.002;6.034;2023-04-25T07:46:48;4.33;;;1.27;;
50647;SDS011;36617;52.002;6.034;2023-04-25T07:49:14;3.87;;;1.30;;
50647;SDS011;36617;52.002;6.034;2023-04-25T07:51:39;4.37;;;1.20;;
50647;SDS011;36617;52.002;6.034;2023-04-25T07:54:05;4.10;;;1.23;;
50647;SDS011;36617;52.002;6.034;2023-04-25T07:56:31;3.40;;;1.20;;
50647;SDS011;36617;52.002;6.034;2023-04-25T07:58:56;3.70;;;1.20;;
50647;SDS011;36617;52.002;6.034;2023-04-25T08:01:22;4.75;;;1.13;;
50647;SDS011;36617;52.002;6.034;2023-04-25T08:03:47;4.60;;;1.20;;
50647;SDS011;36617;52.002;6.034;2023-04-25T08:06:12;4.23;;;1.30;;
50647;SDS011;36617;52.002;6.034;2023-04-25T08:08:37;3.63;;;1.10;;
50647;SDS011;36617;52.002;6.034;2023-04-25T08:11:02;3.90;;;1.10;;
50647;SDS011;36617;52.002;6.034;2023-04-25T08:13:28;5.07;;;1.25;;
50647;SDS011;36617;52.002;6.034;2023-04-25T08:15:53;3.33;;;1.20;;
50647;SDS011;36617;52.002;6.034;2023-04-25T08:18:18;3.27;;;1.23;;
50647;SDS011;36617;52.002;6.034;2023-04-25T08:20:43;4.57;;;1.30;;
50647;SDS011;36617;52.002;6.034;2023-04-25T08:23:09;4.80;;;1.30;;
50647;SDS011;36617;52.002;6.034;2023-04-25T08:25:35;4.70;;;1.23;;
50647;SDS011;36617;52.002;6.034;2023-04-25T08:28:00;4.93;;;1.20;;
50647;SDS011;36617;52.002;6.034;2023-04-25T08:30:27;5.47;;;1.20;;
50647;SDS011;36617;52.002;6.034;2023-04-25T08:32:53;3.83;;;1.20;;
50647;SDS011;36617;52.002;6.034;2023-04-25T08:35:18;3.57;;;1.30;;
50647;SDS011;36617;52.002;6.034;2023-04-25T08:37:43;3.30;;;1.07;;
50647;SDS011;36617;52.002;6.034;2023-04-25T08:40:09;4.57;;;1.30;;
50647;SDS011;36617;52.002;6.034;2023-04-25T08:42:36;3.90;;;1.10;;
50647;SDS011;36617;52.002;6.034;2023-04-25T08:45:02;2.47;;;1.00;;
50647;SDS011;36617;52.002;6.034;2023-04-25T08:47:28;4.28;;;1.10;;
50647;SDS011;36617;52.002;6.034;2023-04-25T08:49:54;3.42;;;1.10;;
50647;SDS011;36617;52.002;6.034;2023-04-25T08:52:23;3.60;;;1.00;;
50647;SDS011;36617;52.002;6.034;2023-04-25T08:54:49;4.38;;;1.20;;
50647;SDS011;36617;52.002;6.034;2023-04-25T08:57:14;3.47;;;1.10;;
50647;SDS011;36617;52.002;6.034;2023-04-25T08:59:40;4.13;;;1.20;;
50647;SDS011;36617;52.002;6.034;2023-04-25T09:02:09;3.23;;;1.00;;
50647;SDS011;36617;52.002;6.034;2023-04-25T09:04:36;4.17;;;1.20;;
50647;SDS011;36617;52.002;6.034;2023-04-25T09:07:02;3.53;;;1.20;;
50647;SDS011;36617;52.002;6.034;2023-04-25T09:09:27;4.50;;;1.20;;
50647;SDS011;36617;52.002;6.034;2023-04-25T09:11:52;3.73;;;1.10;;
50647;SDS011;36617;52.002;6.034;2023-04-25T09:14:19;2.40;;;1.10;;
50647;SDS011;36617;52.002;6.034;2023-04-25T09:19:23;3.80;;;1.10;;
50647;SDS011;36617;52.002;6.034;2023-04-25T09:21:48;4.15;;;1.10;;
50647;SDS011;36617;52.002;6.034;2023-04-25T09:24:13;3.63;;;0.90;;
50647;SDS011;36617;52.002;6.034;2023-04-25T09:26:39;3.90;;;1.10;;
50647;SDS011;36617;52.002;6.034;2023-04-25T09:29:07;3.00;;;1.03;;
50647;SDS011;36617;52.002;6.034;2023-04-25T09:31:32;3.67;;;1.10;;
50647;SDS011;36617;52.002;6.034;2023-04-25T09:33:58;3.33;;;0.93;;
50647;SDS011;36617;52.002;6.034;2023-04-25T09:36:23;4.13;;;1.20;;
50647;SDS011;36617;52.002;6.034;2023-04-25T09:38:50;3.13;;;1.20;;
50647;SDS011;36617;52.002;6.034;2023-04-25T09:41:15;4.57;;;1.00;;
50647;SDS011;36617;52.002;6.034;2023-04-25T09:43:47;3.67;;;1.08;;
50647;SDS011;36617;52.002;6.034;2023-04-25T09:46:14;3.35;;;0.95;;
50647;SDS011;36617;52.002;6.034;2023-04-25T09:48:39;3.13;;;1.07;;
50647;SDS011;36617;52.002;6.034;2023-04-25T09:51:11;2.93;;;1.07;;
50647;SDS011;36617;52.002;6.034;2023-04-25T09:53:43;3.90;;;1.00;;
50647;SDS011;36617;52.002;6.034;2023-04-25T09:56:09;3.90;;;1.00;;
50647;SDS011;36617;52.002;6.034;2023-04-25T09:58:35;3.63;;;1.30;;
50647;SDS011;36617;52.002;6.034;2023-04-25T10:01:01;3.65;;;0.90;;
50647;SDS011;36617;52.002;6.034;2023-04-25T10:03:29;3.28;;;0.98;;
50647;SDS011;36617;52.002;6.034;2023-04-25T10:05:54;3.40;;;0.93;;
50647;SDS011;36617;52.002;6.034;2023-04-25T10:08:20;3.78;;;1.20;;
50647;SDS011;36617;52.002;6.034;2023-04-25T10:10:46;3.75;;;1.02;;
50647;SDS011;36617;52.002;6.034;2023-04-25T10:13:11;3.40;;;1.00;;
50647;SDS011;36617;52.002;6.034;2023-04-25T10:15:39;3.13;;;1.02;;
50647;SDS011;36617;52.002;6.034;2023-04-25T10:18:05;2.60;;;0.93;;
50647;SDS011;36617;52.002;6.034;2023-04-25T10:20:31;4.10;;;1.00;;
50647;SDS011;36617;52.002;6.034;2023-04-25T10:22:58;2.15;;;0.85;;
50647;SDS011;36617;52.002;6.034;2023-04-25T10:25:24;2.20;;;0.80;;
50647;SDS011;36617;52.002;6.034;2023-04-25T10:27:51;2.93;;;1.00;;
50647;SDS011;36617;52.002;6.034;2023-04-25T10:30:16;2.63;;;0.90;;
50647;SDS011;36617;52.002;6.034;2023-04-25T10:32:42;3.27;;;1.00;;
50647;SDS011;36617;52.002;6.034;2023-04-25T10:35:23;2.95;;;1.00;;
50647;SDS011;36617;52.002;6.034;2023-04-25T10:40:33;3.03;;;0.90;;
50647;SDS011;36617;52.002;6.034;2023-04-25T10:45:51;3.72;;;0.80;;
50647;SDS011;36617;52.002;6.034;2023-04-25T10:48:26;4.15;;;1.00;;
50647;SDS011;36617;52.002;6.034;2023-04-25T10:51:10;2.78;;;0.90;;
50647;SDS011;36617;52.002;6.034;2023-04-25T10:53:36;3.88;;;0.90;;
50647;SDS011;36617;52.002;6.034;2023-04-25T10:56:17;2.43;;;0.90;;
50647;SDS011;36617;52.002;6.034;2023-04-25T10:58:44;2.53;;;0.80;;
50647;SDS011;36617;52.002;6.034;2023-04-25T11:01:09;2.75;;;0.80;;
50647;SDS011;36617;52.002;6.034;2023-04-25T11:03:41;3.83;;;1.00;;
50647;SDS011;36617;52.002;6.034;2023-04-25T11:06:10;2.95;;;0.90;;
50647;SDS011;36617;52.002;6.034;2023-04-25T11:08:41;4.25;;;0.90;;
50647;SDS011;36617;52.002;6.034;2023-04-25T11:11:12;3.60;;;1.00;;
50647;SDS011;36617;52.002;6.034;2023-04-25T11:13:37;3.03;;;0.90;;
50647;SDS011;36617;52.002;6.034;2023-04-25T11:16:02;2.55;;;0.90;;
50647;SDS011;36617;52.002;6.034;2023-04-25T11:18:28;3.00;;;1.00;;
50647;SDS011;36617;52.002;6.034;2023-04-25T11:20:53;2.60;;;0.80;;
50647;SDS011;36617;52.002;6.034;2023-04-25T11:23:18;3.25;;;0.90;;
50647;SDS011;36617;52.002;6.034;2023-04-25T11:25:43;3.07;;;0.87;;
50647;SDS011;36617;52.002;6.034;2023-04-25T11:28:09;2.53;;;0.87;;
50647;SDS011;36617;52.002;6.034;2023-04-25T11:30:35;3.83;;;1.00;;
50647;SDS011;36617;52.002;6.034;2023-04-25T11:33:00;4.73;;;0.80;;
50647;SDS011;36617;52.002;6.034;2023-04-25T11:35:25;3.27;;;0.80;;
50647;SDS011;36617;52.002;6.034;2023-04-25T11:37:50;2.93;;;0.90;;
50647;SDS011;36617;52.002;6.034;2023-04-25T11:40:16;2.25;;;0.80;;
50647;SDS011;36617;52.002;6.034;2023-04-25T11:42:44;1.70;;;0.80;;
50647;SDS011;36617;52.002;6.034;2023-04-25T11:45:10;2.53;;;0.80;;
50647;SDS011;36617;52.002;6.034;2023-04-25T11:47:36;2.05;;;0.70;;
50647;SDS011;36617;52.002;6.034;2023-04-25T11:50:02;2.13;;;0.80;;
50647;SDS011;36617;52.002;6.034;2023-04-25T11:52:38;2.10;;;0.73;;
50647;SDS011;36617;52.002;6.034;2023-04-25T11:55:04;2.50;;;0.90;;
50647;SDS011;36617;52.002;6.034;2023-04-25T11:57:30;3.03;;;0.80;;
50647;SDS011;36617;52.002;6.034;2023-04-25T11:59:56;1.85;;;0.85;;
50647;SDS011;36617;52.002;6.034;2023-04-25T12:02:30;2.50;;;0.80;;
50647;SDS011;36617;52.002;6.034;2023-04-25T12:04:58;2.45;;;0.80;;
50647;SDS011;36617;52.002;6.034;2023-04-25T12:07:28;2.33;;;0.80;;
50647;SDS011;36617;52.002;6.034;2023-04-25T12:09:53;2.15;;;0.80;;
50647;SDS011;36617;52.002;6.034;2023-04-25T12:12:18;2.50;;;0.87;;
50647;SDS011;36617;52.002;6.034;2023-04-25T12:14:45;2.53;;;0.80;;
50647;SDS011;36617;52.002;6.034;2023-04-25T12:17:12;2.60;;;0.80;;
50647;SDS011;36617;52.002;6.034;2023-04-25T12:19:37;2.13;;;0.83;;
50647;SDS011;36617;52.002;6.034;2023-04-25T12:22:18;2.40;;;0.80;;
50647;SDS011;36617;52.002;6.034;2023-04-25T12:24:44;2.83;;;0.80;;
50647;SDS011;36617;52.002;6.034;2023-04-25T12:27:10;3.37;;;1.00;;
50647;SDS011;36617;52.002;6.034;2023-04-25T12:29:35;3.67;;;0.80;;
50647;SDS011;36617;52.002;6.034;2023-04-25T12:32:00;3.15;;;1.00;;
50647;SDS011;36617;52.002;6.034;2023-04-25T12:34:29;2.75;;;0.90;;
50647;SDS011;36617;52.002;6.034;2023-04-25T12:36:56;3.10;;;1.07;;
50647;SDS011;36617;52.002;6.034;2023-04-25T12:39:22;3.03;;;0.93;;
50647;SDS011;36617;52.002;6.034;2023-04-25T12:41:48;3.72;;;1.10;;
50647;SDS011;36617;52.002;6.034;2023-04-25T12:44:13;3.10;;;1.13;;
50647;SDS011;36617;52.002;6.034;2023-04-25T12:46:39;3.15;;;0.90;;
50647;SDS011;36617;52.002;6.034;2023-04-25T12:49:05;3.80;;;1.08;;
50647;SDS011;36617;52.002;6.034;2023-04-25T12:51:32;2.00;;;0.80;;
50647;SDS011;36617;52.002;6.034;2023-04-25T12:53:58;2.60;;;0.90;;
50647;SDS011;36617;52.002;6.034;2023-04-25T12:56:23;1.63;;;0.70;;
50647;SDS011;36617;52.002;6.034;2023-04-25T12:58:49;2.53;;;0.80;;
50647;SDS011;36617;52.002;6.034;2023-04-25T13:01:14;2.00;;;0.70;;
50647;SDS011;36617;52.002;6.034;2023-04-25T13:03:40;2.27;;;0.87;;
50647;SDS011;36617;52.002;6.034;2023-04-25T13:06:05;1.83;;;0.77;;
50647;SDS011;36617;52.002;6.034;2023-04-25T13:08:31;1.80;;;0.67;;
50647;SDS011;36617;52.002;6.034;2023-04-25T13:10:56;1.87;;;0.73;;
50647;SDS011;36617;52.002;6.034;2023-04-25T13:13:21;2.63;;;0.90;;
50647;SDS011;36617;52.002;6.034;2023-04-25T13:15:46;1.73;;;0.70;;
50647;SDS011;36617;52.002;6.034;2023-04-25T13:18:11;3.43;;;1.00;;
50647;SDS011;36617;52.002;6.034;2023-04-25T13:20:36;2.63;;;0.80;;
50647;SDS011;36617;52.002;6.034;2023-04-25T13:23:02;2.00;;;0.70;;
50647;SDS011;36617;52.002;6.034;2023-04-25T13:25:27;2.53;;;0.90;;
50647;SDS011;36617;52.002;6.034;2023-04-25T13:27:52;2.43;;;0.90;;
50647;SDS011;36617;52.002;6.034;2023-04-25T13:30:17;3.50;;;0.90;;
50647;SDS011;36617;52.002;6.034;2023-04-25T13:32:42;2.97;;;0.87;;
50647;SDS011;36617;52.002;6.034;2023-04-25T13:35:09;2.28;;;0.80;;
50647;SDS011;36617;52.002;6.034;2023-04-25T13:37:34;2.97;;;0.90;;
50647;SDS011;36617;52.002;6.034;2023-04-25T13:40:00;2.50;;;0.80;;
50647;SDS011;36617;52.002;6.034;2023-04-25T13:42:25;2.70;;;0.87;;
50647;SDS011;36617;52.002;6.034;2023-04-25T13:44:51;2.17;;;0.85;;
50647;SDS011;36617;52.002;6.034;2023-04-25T13:47:16;2.07;;;0.80;;
50647;SDS011;36617;52.002;6.034;2023-04-25T13:49:41;2.87;;;0.80;;
50647;SDS011;36617;52.002;6.034;2023-04-25T13:52:06;3.10;;;0.80;;
50647;SDS011;36617;52.002;6.034;2023-04-25T13:54:32;2.70;;;1.00;;
50647;SDS011;36617;52.002;6.034;2023-04-25T13:56:57;2.87;;;1.00;;
50647;SDS011;36617;52.002;6.034;2023-04-25T13:59:24;2.25;;;0.80;;
50647;SDS011;36617;52.002;6.034;2023-04-25T14:01:50;1.98;;;0.80;;
50647;SDS011;36617;52.002;6.034;2023-04-25T14:04:15;3.13;;;1.00;;
50647;SDS011;36617;52.002;6.034;2023-04-25T14:06:41;3.80;;;1.10;;
50647;SDS011;36617;52.002;6.034;2023-04-25T14:09:06;3.17;;;0.90;;
50647;SDS011;36617;52.002;6.034;2023-04-25T14:11:32;2.90;;;1.00;;
50647;SDS011;36617;52.002;6.034;2023-04-25T14:13:57;2.37;;;1.00;;
50647;SDS011;36617;52.002;6.034;2023-04-25T14:16:22;2.53;;;0.90;;
50647;SDS011;36617;52.002;6.034;2023-04-25T14:18:48;3.28;;;1.00;;
50647;SDS011;36617;52.002;6.034;2023-04-25T14:21:13;2.10;;;0.77;;
50647;SDS011;36617;52.002;6.034;2023-04-25T14:23:38;2.80;;;1.00;;
50647;SDS011;36617;52.002;6.034;2023-04-25T14:26:03;2.03;;;0.80;;
50647;SDS011;36617;52.002;6.034;2023-04-25T14:28:28;3.35;;;0.80;;
50647;SDS011;36617;52.002;6.034;2023-04-25T14:30:54;2.50;;;0.90;;
50647;SDS011;36617;52.002;6.034;2023-04-25T14:33:19;2.47;;;0.90;;
50647;SDS011;36617;52.002;6.034;2023-04-25T14:35:44;2.47;;;0.80;;
50647;SDS011;36617;52.002;6.034;2023-04-25T14:38:10;2.80;;;0.90;;
50647;SDS011;36617;52.002;6.034;2023-04-25T14:40:35;2.43;;;1.00;;
50647;SDS011;36617;52.002;6.034;2023-04-25T14:43:01;2.30;;;0.90;;
50647;SDS011;36617;52.002;6.034;2023-04-25T14:45:26;2.35;;;0.88;;
50647;SDS011;36617;52.002;6.034;2023-04-25T14:47:52;2.43;;;0.90;;